createdAt,value
2023-04-10T00:00:02.569Z,100260.91
2023-04-10T00:02:29.530Z,100261.78
2023-04-10T00:04:56.392Z,100259.25
2023-04-10T00:07:23.167Z,100266.00
2023-04-10T00:09:49.871Z,100268.53
2023-04-10T00:12:16.814Z,100264.31
2023-04-10T00:14:43.485Z,100246.53
2023-04-10T00:17:10.514Z,100256.69
2023-04-10T00:19:37.285Z,100242.31
2023-04-10T00:22:05.613Z,100244.00
2023-04-10T00:24:32.339Z,100257.53
2023-04-10T00:26:59.040Z,100247.41
2023-04-10T00:29:25.829Z,100244.00
2023-04-10T00:31:52.610Z,100238.09
2023-04-10T00:34:19.442Z,100239.75
2023-04-10T00:36:49.645Z,100240.59
2023-04-10T00:39:16.540Z,100245.66
2023-04-10T00:41:43.329Z,100245.66
2023-04-10T00:44:10.362Z,100235.53
2023-04-10T00:46:39.431Z,100238.88
2023-04-10T00:49:06.863Z,100230.41
2023-04-10T00:51:33.927Z,100222.81
2023-04-10T00:54:02.199Z,100223.66
2023-04-10T00:56:32.413Z,100216.88
2023-04-10T00:58:59.432Z,100209.28
2023-04-10T01:01:26.272Z,100199.97
2023-04-10T01:03:54.539Z,100194.91
2023-04-10T01:06:55.064Z,100196.59
2023-04-10T01:09:47.186Z,100187.25
2023-04-10T01:13:05.906Z,100185.56
2023-04-10T01:15:46.147Z,100187.25
2023-04-10T01:18:48.487Z,100182.13
2023-04-10T01:21:17.092Z,100184.66
2023-04-10T01:24:05.212Z,100172.81
2023-04-10T01:27:14.814Z,100170.28
2023-04-10T01:29:47.743Z,100172.78
2023-04-10T01:32:21.608Z,100163.50
2023-04-10T01:34:54.369Z,100168.56
2023-04-10T01:37:27.944Z,100158.41
2023-04-10T01:40:03.181Z,100147.41
2023-04-10T01:42:34.947Z,100156.72
2023-04-10T01:45:04.844Z,100159.25
2023-04-10T01:47:32.551Z,100149.94
2023-04-10T01:50:01.805Z,100155.03
2023-04-10T01:52:30.949Z,100157.53
2023-04-10T01:54:58.392Z,100158.38
2023-04-10T01:57:25.351Z,100153.28
2023-04-10T01:59:52.041Z,100158.34
2023-04-10T02:02:18.893Z,100154.13
2023-04-10T02:04:51.394Z,100153.28
2023-04-10T02:07:35.880Z,100153.28
2023-04-10T02:10:28.280Z,100154.13
2023-04-10T02:13:06.195Z,100145.66
2023-04-10T02:15:34.948Z,100156.63
2023-04-10T02:18:04.866Z,100154.09
2023-04-10T02:20:32.645Z,100148.16
2023-04-10T02:23:03.559Z,100149.84
2023-04-10T02:25:34.529Z,100150.69
2023-04-10T02:28:08.210Z,100148.97
2023-04-10T02:30:35.827Z,100143.91
2023-04-10T02:33:02.753Z,100146.44
2023-04-10T02:35:29.521Z,100148.97
2023-04-10T02:37:56.458Z,100145.56
2023-04-10T02:40:23.560Z,100136.31
2023-04-10T02:42:50.244Z,100138.84
2023-04-10T02:45:17.019Z,100139.66
2023-04-10T02:47:43.818Z,100134.59
2023-04-10T02:50:11.365Z,100136.31
2023-04-10T02:52:38.175Z,100135.44
2023-04-10T02:55:05.747Z,100132.03
2023-04-10T02:57:32.550Z,100130.38
2023-04-10T02:59:59.228Z,100124.44
2023-04-10T03:02:26.502Z,100120.19
2023-04-10T03:04:53.578Z,100115.13
2023-04-10T03:07:20.466Z,100115.13
2023-04-10T03:09:47.278Z,100109.22
2023-04-10T03:12:13.979Z,100109.22
2023-04-10T03:14:41.410Z,100113.47
2023-04-10T03:17:08.207Z,100109.22
2023-04-10T03:19:35.008Z,100107.56
2023-04-10T03:22:02.221Z,100100.78
2023-04-10T03:24:28.964Z,100094.03
2023-04-10T03:26:57.145Z,100094.03
2023-04-10T03:29:23.916Z,100085.59
2023-04-10T03:31:50.870Z,100088.97
2023-04-10T03:34:18.408Z,100084.72
2023-04-10T03:36:45.097Z,100068.69
2023-04-10T03:39:11.956Z,100072.88
2023-04-10T03:41:38.657Z,100072.91
2023-04-10T03:44:05.415Z,100070.34
2023-04-10T03:46:32.135Z,100077.97
2023-04-10T03:48:58.849Z,100063.59
2023-04-10T03:51:26.572Z,100069.50
2023-04-10T03:53:53.854Z,100077.09
2023-04-10T03:56:20.704Z,100076.22
2023-04-10T03:58:47.389Z,100075.38
2023-04-10T04:01:14.475Z,100079.59
2023-04-10T04:03:41.436Z,100069.44
2023-04-10T04:06:08.286Z,100067.75
2023-04-10T04:08:36.374Z,100062.66
2023-04-10T04:11:03.209Z,100069.41
2023-04-10T04:13:29.967Z,100061.75
2023-04-10T04:15:56.664Z,100054.13
2023-04-10T04:18:23.382Z,100057.44
2023-04-10T04:20:50.225Z,100049.81
2023-04-10T04:23:17.708Z,100050.59
2023-04-10T04:25:44.453Z,100049.72
2023-04-10T04:28:13.582Z,100044.63
2023-04-10T04:30:40.322Z,100048.81
2023-04-10T04:33:07.164Z,100045.41
2023-04-10T04:35:33.999Z,100047.06
2023-04-10T04:38:01.005Z,100056.28
2023-04-10T04:40:27.779Z,100057.09
2023-04-10T04:42:54.474Z,100062.09
2023-04-10T04:45:21.841Z,100062.94
2023-04-10T04:47:48.719Z,100064.59
2023-04-10T04:50:15.572Z,100060.38
2023-04-10T04:52:44.153Z,100063.75
2023-04-10T04:55:10.898Z,100055.31
2023-04-10T04:57:37.648Z,100060.34
2023-04-10T05:00:05.549Z,100050.22
2023-04-10T05:02:32.345Z,100052.75
2023-04-10T05:04:59.392Z,100047.63
2023-04-10T05:07:26.960Z,100041.72
2023-04-10T05:09:53.772Z,100049.31
2023-04-10T05:12:20.509Z,100054.38
2023-04-10T05:14:47.235Z,100055.22
2023-04-10T05:17:15.073Z,100049.34
2023-04-10T05:19:41.758Z,100051.91
2023-04-10T05:22:08.543Z,100049.38
2023-04-10T05:24:35.554Z,100056.16
2023-04-10T05:27:02.350Z,100052.81
2023-04-10T05:29:29.209Z,100057.88
2023-04-10T05:31:55.914Z,100054.56
2023-04-10T05:34:22.630Z,100072.34
2023-04-10T05:36:49.420Z,100058.09
2023-04-10T05:39:16.634Z,100059.06
2023-04-10T05:41:43.427Z,100057.47
2023-04-10T05:44:10.199Z,100057.56
2023-04-10T05:46:36.941Z,100042.47
2023-04-10T05:49:03.751Z,100048.41
2023-04-10T05:51:30.844Z,100052.69
2023-04-10T05:53:57.602Z,100052.72
2023-04-10T05:56:24.383Z,100044.31
2023-04-10T05:58:51.073Z,100034.19
2023-04-10T06:01:17.788Z,100040.94
2023-04-10T06:03:44.945Z,100015.66
2023-04-10T06:06:12.102Z,100014.78
2023-04-10T06:08:38.974Z,100014.75
2023-04-10T06:11:06.232Z,100017.28
2023-04-10T06:13:33.382Z,100014.72
2023-04-10T06:16:00.934Z,100020.59
2023-04-10T06:18:27.924Z,100024.75
2023-04-10T06:20:56.630Z,100028.06
2023-04-10T06:23:23.634Z,100022.06
2023-04-10T06:25:50.378Z,100015.97
2023-04-10T06:28:17.104Z,100023.41
2023-04-10T06:30:43.852Z,100010.44
2023-04-10T06:33:10.923Z,100016.13
2023-04-10T06:35:37.880Z,100015.78
2023-04-10T06:38:05.025Z,100020.53
2023-04-10T06:40:33.984Z,100012.53
2023-04-10T06:43:01.298Z,100008.03
2023-04-10T06:45:28.123Z,100012.19
2023-04-10T06:47:55.041Z,100018.16
2023-04-10T06:50:21.900Z,100018.16
2023-04-10T06:52:48.892Z,100006.25
2023-04-10T06:55:15.899Z,100009.50
2023-04-10T06:57:43.376Z,100014.63
2023-04-10T07:00:10.722Z,100008.69
2023-04-10T07:02:37.491Z,100014.53
2023-04-10T07:05:04.525Z,100011.00
2023-04-10T07:07:31.483Z,100014.16
2023-04-10T07:09:58.525Z,100018.97
2023-04-10T07:12:25.419Z,100017.66
2023-04-10T07:14:52.191Z,100012.88
2023-04-10T07:17:19.168Z,100013.97
2023-04-10T07:19:45.946Z,100002.97
2023-04-10T07:22:13.068Z,100004.59
2023-04-10T07:24:39.796Z,100008.53
2023-04-10T07:27:06.535Z,99999.50
2023-04-10T07:29:33.446Z,100003.41
2023-04-10T07:32:00.529Z,99990.50
2023-04-10T07:34:27.377Z,99983.00
2023-04-10T07:36:54.091Z,99975.59
2023-04-10T07:39:21.008Z,99974.84
2023-04-10T07:41:47.750Z,99972.91
2023-04-10T07:44:14.536Z,99961.13
2023-04-10T07:46:41.743Z,99969.75
2023-04-10T07:49:08.818Z,99960.78
2023-04-10T07:51:36.163Z,99959.91
2023-04-10T07:54:04.507Z,99959.41
2023-04-10T07:56:31.466Z,99953.31
2023-04-10T07:59:01.081Z,99950.91
2023-04-10T08:01:28.938Z,99942.78
2023-04-10T08:03:59.127Z,99944.72
2023-04-10T08:06:25.958Z,99938.75
2023-04-10T08:08:52.993Z,99937.16
2023-04-10T08:11:31.314Z,99932.13
2023-04-10T08:14:03.720Z,99932.06
2023-04-10T08:16:33.536Z,99922.59
2023-04-10T08:19:01.824Z,99916.22
2023-04-10T08:21:31.679Z,99905.69
2023-04-10T08:24:01.883Z,99901.94
2023-04-10T08:26:30.129Z,99906.59
2023-04-10T08:28:59.676Z,99902.38
2023-04-10T08:31:29.027Z,99897.16
2023-04-10T08:33:57.221Z,99887.00
2023-04-10T08:36:24.362Z,99885.59
2023-04-10T08:38:51.064Z,99880.19
2023-04-10T08:41:19.925Z,99875.66
2023-04-10T08:43:47.194Z,99874.69
2023-04-10T08:46:14.981Z,99874.84
2023-04-10T08:48:53.874Z,99866.03
2023-04-10T08:51:26.268Z,99868.63
2023-04-10T08:54:06.960Z,99870.66
2023-04-10T08:56:35.664Z,99869.13
2023-04-10T08:59:03.485Z,99879.13
2023-04-10T09:01:31.782Z,99871.25
2023-04-10T09:03:59.197Z,99868.09
2023-04-10T09:06:27.232Z,99886.69
2023-04-10T09:08:53.981Z,99876.31
2023-04-10T09:11:20.688Z,99881.59
2023-04-10T09:13:47.476Z,99876.25
2023-04-10T09:16:14.579Z,99875.34
2023-04-10T09:18:50.491Z,99881.59
2023-04-10T09:21:21.543Z,99868.81
2023-04-10T09:23:49.544Z,99865.47
2023-04-10T09:26:33.986Z,99870.19
2023-04-10T09:29:06.786Z,99855.66
2023-04-10T09:31:36.782Z,99866.94
2023-04-10T09:34:23.798Z,99866.13
2023-04-10T09:36:56.646Z,99857.84
2023-04-10T09:39:41.016Z,99860.09
2023-04-10T09:42:07.901Z,99857.88
2023-04-10T09:44:38.469Z,99847.06
2023-04-10T09:47:14.349Z,99840.38
2023-04-10T09:49:58.735Z,99831.44
2023-04-10T09:52:32.371Z,99830.25
2023-04-10T09:55:04.664Z,99826.50
2023-04-10T09:57:34.167Z,99830.69
2023-04-10T10:00:06.754Z,99823.81
2023-04-10T10:02:39.190Z,99819.69
2023-04-10T10:05:07.240Z,99812.28
2023-04-10T10:07:34.906Z,99814.19
2023-04-10T10:10:03.556Z,99814.41
2023-04-10T10:12:48.169Z,99799.06
2023-04-10T10:15:29.754Z,99788.84
2023-04-10T10:18:35.178Z,99781.66
2023-04-10T10:21:03.782Z,99786.50
2023-04-10T10:23:33.662Z,99769.06
2023-04-10T10:26:04.741Z,99771.69
2023-04-10T10:28:34.412Z,99772.78
2023-04-10T10:31:03.669Z,99766.88
2023-04-10T10:33:31.720Z,99764.44
2023-04-10T10:36:03.239Z,99752.97
2023-04-10T10:38:31.900Z,99741.69
2023-04-10T10:41:21.255Z,99753.88
2023-04-10T10:43:56.110Z,99744.81
2023-04-10T10:47:07.516Z,99740.78
2023-04-10T10:50:00.892Z,99736.09
2023-04-10T10:52:53.781Z,99732.84
2023-04-10T10:55:27.477Z,99736.38
2023-04-10T10:57:57.274Z,99736.88
2023-04-10T11:00:26.350Z,99729.69
2023-04-10T11:03:08.793Z,99725.06
2023-04-10T11:05:58.688Z,99736.06
2023-04-10T11:08:36.980Z,99722.63
2023-04-10T11:11:10.620Z,99700.00
2023-04-10T11:13:39.957Z,99706.31
2023-04-10T11:16:10.701Z,99706.06
2023-04-10T11:19:14.120Z,99712.69
2023-04-10T11:22:04.491Z,99703.94
2023-04-10T11:24:57.319Z,99696.94
2023-04-10T11:27:53.415Z,99693.84
2023-04-10T11:30:33.627Z,99692.59
2023-04-10T11:33:02.237Z,99699.22
2023-04-10T11:35:31.379Z,99697.72
2023-04-10T11:38:14.423Z,99684.81
2023-04-10T11:41:04.146Z,99671.91
2023-04-10T11:43:32.338Z,99673.38
2023-04-10T11:46:05.553Z,99658.31
2023-04-10T11:48:33.182Z,99660.81
2023-04-10T11:51:07.348Z,99646.81
2023-04-10T11:53:34.280Z,99640.78
2023-04-10T11:56:01.308Z,99638.81
2023-04-10T11:58:30.654Z,99630.81
2023-04-10T12:01:04.916Z,99623.03
2023-04-10T12:03:43.278Z,99619.88
2023-04-10T12:06:15.527Z,99618.88
2023-04-10T12:08:49.271Z,99618.78
2023-04-10T12:11:20.559Z,99624.38
2023-04-10T12:13:48.344Z,99616.91
2023-04-10T12:16:15.455Z,99621.91
2023-04-10T12:18:42.848Z,99616.72
2023-04-10T12:21:09.949Z,99609.16
2023-04-10T12:23:41.593Z,99611.47
2023-04-10T12:26:17.353Z,99617.13
2023-04-10T12:28:57.515Z,99616.22
2023-04-10T12:31:33.569Z,99619.38
2023-04-10T12:34:02.124Z,99606.34
2023-04-10T12:36:30.513Z,99601.25
2023-04-10T12:38:59.241Z,99609.31
2023-04-10T12:41:33.393Z,99591.44
2023-04-10T12:44:14.458Z,99595.50
2023-04-10T12:46:44.295Z,99587.00
2023-04-10T12:49:16.563Z,99595.09
2023-04-10T12:51:51.303Z,99586.72
2023-04-10T12:54:47.260Z,99575.31
2023-04-10T12:57:27.560Z,99570.19
2023-04-10T12:59:54.364Z,99576.13
2023-04-10T13:02:21.656Z,99583.09
2023-04-10T13:04:48.462Z,99563.47
2023-04-10T13:07:15.796Z,99568.00
2023-04-10T13:09:42.759Z,99553.59
2023-04-10T13:12:09.463Z,99557.81
2023-04-10T13:14:36.596Z,99542.66
2023-04-10T13:17:03.317Z,99549.78
2023-04-10T13:19:30.287Z,99548.66
2023-04-10T13:21:56.978Z,99538.19
2023-04-10T13:24:24.801Z,99550.78
2023-04-10T13:26:51.537Z,99523.69
2023-04-10T13:29:18.297Z,99528.50
2023-04-10T13:31:45.020Z,99514.28
2023-04-10T13:34:11.766Z,99511.59
2023-04-10T13:36:38.704Z,99503.94
2023-04-10T13:39:05.693Z,99517.34
2023-04-10T13:41:32.450Z,99498.25
2023-04-10T13:43:59.153Z,99503.25
2023-04-10T13:46:26.407Z,99496.22
2023-04-10T13:48:53.130Z,99501.69
2023-04-10T13:51:19.879Z,99488.66
2023-04-10T13:53:46.610Z,99483.72
2023-04-10T13:56:13.339Z,99483.53
2023-04-10T13:58:40.206Z,99473.09
2023-04-10T14:01:07.799Z,99472.81
2023-04-10T14:03:34.659Z,99470.72
2023-04-10T14:06:01.419Z,99468.88
2023-04-10T14:08:28.125Z,99459.88
2023-04-10T14:10:54.836Z,99452.38
2023-04-10T14:13:21.608Z,99455.97
2023-04-10T14:15:48.500Z,99441.38
2023-04-10T14:18:18.180Z,99453.63
2023-04-10T14:20:44.921Z,99444.59
2023-04-10T14:23:18.028Z,99428.84
2023-04-10T14:25:46.306Z,99430.94
2023-04-10T14:28:19.095Z,99419.47
2023-04-10T14:30:51.233Z,99417.84
2023-04-10T14:33:20.029Z,99404.09
2023-04-10T14:35:48.117Z,99393.50
2023-04-10T14:38:15.740Z,99388.69
2023-04-10T14:40:42.742Z,99400.19
2023-04-10T14:43:09.615Z,99389.69
2023-04-10T14:45:36.384Z,99400.44
2023-04-10T14:48:03.323Z,99393.03
2023-04-10T14:50:32.745Z,99391.00
2023-04-10T14:53:00.423Z,99396.81
2023-04-10T14:55:29.994Z,99386.16
2023-04-10T14:57:58.615Z,99386.59
2023-04-10T15:00:26.320Z,99383.47
2023-04-10T15:02:53.417Z,99388.94
2023-04-10T15:05:22.227Z,99383.25
2023-04-10T15:07:49.065Z,99392.28
2023-04-10T15:10:16.046Z,99392.59
2023-04-10T15:12:42.857Z,99392.97
2023-04-10T15:15:10.406Z,99390.78
2023-04-10T15:17:37.188Z,99387.72
2023-04-10T15:20:05.057Z,99387.22
2023-04-10T15:22:31.775Z,99387.66
2023-04-10T15:24:58.703Z,99374.41
2023-04-10T15:27:25.430Z,99378.25
2023-04-10T15:29:52.160Z,99366.75
2023-04-10T15:32:18.949Z,99374.22
2023-04-10T15:34:45.844Z,99367.06
2023-04-10T15:37:12.599Z,99370.28
2023-04-10T15:39:39.345Z,99371.69
2023-04-10T15:42:08.098Z,99362.88
2023-04-10T15:44:34.968Z,99349.66
2023-04-10T15:47:01.757Z,99346.75
2023-04-10T15:49:37.054Z,99339.56
2023-04-10T15:52:22.675Z,99338.31
2023-04-10T15:54:51.243Z,99333.00
2023-04-10T15:57:18.094Z,99312.94
2023-04-10T15:59:44.835Z,99296.25
2023-04-10T16:02:11.625Z,99295.13
2023-04-10T16:04:38.523Z,99283.72
2023-04-10T16:07:05.496Z,99276.63
2023-04-10T16:09:32.188Z,99272.13
2023-04-10T16:11:59.025Z,99269.31
2023-04-10T16:14:25.770Z,99260.53
2023-04-10T16:16:52.529Z,99265.19
2023-04-10T16:19:19.443Z,99259.53
2023-04-10T16:21:46.157Z,99260.63
2023-04-10T16:24:12.941Z,99270.16
2023-04-10T16:26:39.663Z,99279.63
2023-04-10T16:29:06.539Z,99274.50
2023-04-10T16:31:33.396Z,99269.41
2023-04-10T16:34:01.235Z,99260.09
2023-04-10T16:36:27.953Z,99258.50
2023-04-10T16:38:54.842Z,99251.00
2023-04-10T16:41:22.697Z,99259.78
2023-04-10T16:43:49.462Z,99258.09
2023-04-10T16:46:16.286Z,99263.31
2023-04-10T16:48:42.997Z,99270.06
2023-04-10T16:51:16.324Z,99258.94
2023-04-10T16:53:43.249Z,99238.41
2023-04-10T16:56:10.196Z,99234.91
2023-04-10T16:58:37.648Z,99225.50
2023-04-10T17:01:25.944Z,99238.19
2023-04-10T17:03:54.151Z,99210.78
2023-04-10T17:06:21.103Z,99209.97
2023-04-10T17:08:48.103Z,99213.44
2023-04-10T17:11:14.902Z,99208.44
2023-04-10T17:13:42.145Z,99196.69
2023-04-10T17:16:10.044Z,99197.03
2023-04-10T17:18:36.923Z,99201.66
2023-04-10T17:21:03.994Z,99211.31
2023-04-10T17:23:30.815Z,99194.47
2023-04-10T17:25:57.532Z,99188.06
2023-04-10T17:28:24.318Z,99181.63
2023-04-10T17:30:51.032Z,99193.06
2023-04-10T17:33:17.772Z,99190.81
2023-04-10T17:35:44.501Z,99197.88
2023-04-10T17:38:11.247Z,99187.94
2023-04-10T17:40:40.784Z,99200.19
2023-04-10T17:43:07.901Z,99185.16
2023-04-10T17:45:39.161Z,99170.06
2023-04-10T17:48:06.860Z,99177.13
2023-04-10T17:50:33.908Z,99184.91
2023-04-10T17:53:00.884Z,99188.53
2023-04-10T17:55:28.016Z,99202.28
2023-04-10T17:57:58.033Z,99189.66
2023-04-10T18:00:32.044Z,99182.94
2023-04-10T18:03:00.990Z,99179.84
2023-04-10T18:05:34.622Z,99174.03
2023-04-10T18:08:01.338Z,99178.53
2023-04-10T18:10:28.318Z,99183.78
2023-04-10T18:12:58.597Z,99194.09
2023-04-10T18:15:26.406Z,99195.91
2023-04-10T18:17:55.192Z,99224.09
2023-04-10T18:20:22.409Z,99221.66
2023-04-10T18:22:49.251Z,99214.09
2023-04-10T18:25:17.028Z,99212.56
2023-04-10T18:27:51.561Z,99215.28
2023-04-10T18:30:22.446Z,99210.41
2023-04-10T18:33:10.674Z,99212.41
2023-04-10T18:35:38.583Z,99216.13
2023-04-10T18:38:05.440Z,99218.03
2023-04-10T18:40:34.570Z,99230.88
2023-04-10T18:43:27.616Z,99237.97
2023-04-10T18:45:55.303Z,99263.72
2023-04-10T18:48:22.786Z,99269.88
2023-04-10T18:51:15.770Z,99266.63
2023-04-10T18:54:10.739Z,99265.06
2023-04-10T18:56:58.993Z,99280.44
2023-04-10T18:59:54.765Z,99278.91
2023-04-10T19:02:29.768Z,99279.09
2023-04-10T19:05:24.550Z,99280.94
2023-04-10T19:10:48.493Z,99289.00
2023-04-10T19:13:35.209Z,99290.03
2023-04-10T19:16:09.070Z,99278.31
2023-04-10T19:18:36.051Z,99280.97
2023-04-10T19:21:04.095Z,99289.59
2023-04-10T19:23:31.010Z,99289.72
2023-04-10T19:25:59.684Z,99287.28
2023-04-10T19:28:31.534Z,99283.19
2023-04-10T19:31:06.123Z,99282.53
2023-04-10T19:33:32.938Z,99293.66
2023-04-10T19:36:55.194Z,99284.56
2023-04-10T19:39:22.273Z,99283.88
2023-04-10T19:42:48.581Z,99281.47
2023-04-10T19:45:18.844Z,99281.66
2023-04-10T19:47:45.618Z,99294.44
2023-04-10T19:50:12.348Z,99295.38
2023-04-10T19:52:39.061Z,99296.28
2023-04-10T19:55:06.283Z,99298.09
2023-04-10T19:57:33.017Z,99293.91
2023-04-10T19:59:59.825Z,99301.66
2023-04-10T20:02:26.725Z,99303.47
2023-04-10T20:04:53.670Z,99288.28
2023-04-10T20:07:20.570Z,99292.69
2023-04-10T20:09:47.429Z,99309.84
2023-04-10T20:12:16.114Z,99318.47
2023-04-10T20:14:44.667Z,99309.28
2023-04-10T20:17:12.208Z,99322.13
2023-04-10T20:19:38.949Z,99322.28
2023-04-10T20:22:07.528Z,99312.22
2023-04-10T20:24:34.202Z,99308.16
2023-04-10T20:27:01.470Z,99328.63
2023-04-10T20:29:28.165Z,99321.19
2023-04-10T20:31:54.908Z,99310.22
2023-04-10T20:34:21.662Z,99287.47
2023-04-10T20:36:48.417Z,99289.25
2023-04-10T20:39:16.501Z,99276.66
2023-04-10T20:41:50.993Z,99286.94
2023-04-10T20:44:17.712Z,99293.03
2023-04-10T20:46:45.126Z,99289.72
2023-04-10T20:49:15.803Z,99283.03
2023-04-10T20:51:42.971Z,99297.53
2023-04-10T20:54:09.720Z,99295.91
2023-04-10T20:56:42.972Z,99295.13
2023-04-10T20:59:10.622Z,99266.41
2023-04-10T21:01:37.443Z,99252.06
2023-04-10T21:04:04.496Z,99257.22
2023-04-10T21:06:33.500Z,99249.66
2023-04-10T21:09:00.645Z,99226.00
2023-04-10T21:11:27.688Z,99225.22
2023-04-10T21:13:54.709Z,99209.19
2023-04-10T21:16:21.663Z,99211.75
2023-04-10T21:18:48.553Z,99237.16
2023-04-10T21:21:15.900Z,99210.09
2023-04-10T21:23:42.675Z,99185.56
2023-04-10T21:26:10.050Z,99177.97
2023-04-10T21:28:36.981Z,99199.16
2023-04-10T21:31:03.908Z,99206.81
2023-04-10T21:33:31.979Z,99202.63
2023-04-10T21:35:58.713Z,99218.72
2023-04-10T21:38:26.314Z,99219.59
2023-04-10T21:40:54.483Z,99193.38
2023-04-10T21:43:21.788Z,99190.00
2023-04-10T21:45:49.114Z,99185.78
2023-04-10T21:48:16.070Z,99193.44
2023-04-10T21:50:42.897Z,99176.53
2023-04-10T21:53:09.841Z,99169.78
2023-04-10T21:55:36.540Z,99165.56
2023-04-10T21:58:04.360Z,99156.31
2023-04-10T22:00:31.553Z,99154.66
2023-04-10T22:02:58.318Z,99162.28
2023-04-10T22:05:25.247Z,99165.75
2023-04-10T22:07:52.333Z,99152.31
2023-04-10T22:10:19.273Z,99157.53
2023-04-10T22:12:48.524Z,99147.47
2023-04-10T22:15:16.288Z,99137.34
2023-04-10T22:17:43.329Z,99146.72
2023-04-10T22:20:11.061Z,99154.41
2023-04-10T22:22:37.795Z,99153.59
2023-04-10T22:25:05.173Z,99151.09
2023-04-10T22:27:33.204Z,99131.69
2023-04-10T22:30:03.800Z,99126.69
2023-04-10T22:32:32.098Z,99148.75
2023-04-10T22:34:59.896Z,99140.34
2023-04-10T22:37:27.555Z,99115.00
2023-04-10T22:39:55.984Z,99126.03
2023-04-10T22:42:23.896Z,99138.81
2023-04-10T22:44:50.670Z,99143.88
2023-04-10T22:47:17.845Z,99142.22
2023-04-10T22:49:45.774Z,99155.78
2023-04-10T22:52:13.117Z,99154.94
2023-04-10T22:54:39.796Z,99152.44
2023-04-10T22:57:06.822Z,99134.69
2023-04-10T22:59:36.571Z,99141.50
2023-04-10T23:02:03.592Z,99139.00
2023-04-10T23:04:30.554Z,99140.75
2023-04-10T23:06:57.261Z,99134.88
2023-04-10T23:09:23.992Z,99145.03
2023-04-10T23:11:50.752Z,99144.19
2023-04-10T23:14:17.464Z,99150.16
2023-04-10T23:16:47.536Z,99155.22
2023-04-10T23:19:14.325Z,99141.72
2023-04-10T23:21:41.309Z,99150.97
2023-04-10T23:24:08.162Z,99142.53
2023-04-10T23:26:34.903Z,99148.44
2023-04-10T23:29:01.994Z,99154.41
2023-04-10T23:31:28.782Z,99152.69
2023-04-10T23:33:55.528Z,99156.94
2023-04-10T23:36:22.236Z,99167.91
2023-04-10T23:38:48.964Z,99161.09
2023-04-10T23:41:15.786Z,99164.44
2023-04-10T23:43:42.509Z,99156.81
2023-04-10T23:46:09.215Z,99161.78
2023-04-10T23:48:36.051Z,99160.94
2023-04-10T23:51:05.274Z,99152.44
2023-04-10T23:53:32.465Z,99139.72
2023-04-10T23:55:59.308Z,99160.81
2023-04-10T23:58:26.095Z,99161.66
